Data for 12/20/2013

Time Sea-Level Adjusted Pressure Absolute Pressure Temperature Relative Humidity Dew Point   
(mb) (inHg) (mb) (inHg) (C) (F) (%) (C) (F)
00:05 1014 29.94 844 24.92 -17.2 1 84 -19.4 -2.9
00:10 1014 29.94 844 24.92 -17 1.4 83 -19.2 -2.5
00:15 1014 29.94 844 24.92 -16.8 1.7 83 -19 -2.2
00:20 1014 29.94 844 24.92 -16.6 2.2 83 -18.8 -1.9
00:25 1014 29.94 844 24.92 -16.3 2.6 83 -18.6 -1.5
00:30 1014 29.94 844 24.92 -16.2 2.9 82 -18.5 -1.4
00:35 1015 29.97 844 24.92 -16.1 3.1 82 -18.4 -1.2
00:40 1015 29.97 844 24.92 -16.2 2.9 82 -18.6 -1.5
00:45 1015 29.97 844 24.92 -16.4 2.5 83 -18.7 -1.6
00:50 1015 29.97 844 24.92 -16.7 2 83 -18.9 -1.9
00:55 1014 29.94 844 24.92 -16.9 1.5 84 -19.1 -2.4
01:00 1014 29.94 844 24.92 -16.9 1.5 87 -18.7 -1.6
01:05 1014 29.94 844 24.92 -16.4 2.4 84 -18.5 -1.3
01:10 1014 29.94 843 24.89 -16.3 2.6 85 -18.4 -1.1
01:15 1014 29.94 843 24.89 -16.3 2.7 85 -18.3 -0.9
01:20 1014 29.94 843 24.89 -16.2 2.9 83 -18.5 -1.2
01:25 1014 29.94 843 24.89 -16.1 3.1 84 -18.1 -0.6
01:30 1014 29.94 843 24.89 -15.9 3.4 83 -18.1 -0.6
01:35 1014 29.94 843 24.89 -15.8 3.5 82 -18.3 -0.9
01:40 1014 29.94 843 24.89 -15.8 3.5 82 -18.2 -0.8
01:45 1014 29.94 843 24.89 -15.8 3.6 82 -18.2 -0.8
01:50 1014 29.94 843 24.89 -15.7 3.7 82 -18.2 -0.8
01:55 1014 29.94 843 24.89 -15.6 3.9 81 -18.2 -0.7
02:00 1014 29.94 843 24.89 -15.7 3.8 81 -18.3 -0.9
02:05 1014 29.94 843 24.89 -15.9 3.4 81 -18.5 -1.2
02:10 1014 29.94 843 24.89 -16.1 3.1 81 -18.6 -1.5
02:15 1014 29.94 843 24.89 -16.3 2.7 81 -18.8 -1.9
02:20 1014 29.94 843 24.89 -16.6 2.1 82 -18.9 -2.1
02:25 1014 29.94 843 24.89 -16.7 2 82 -19 -2.2
02:30 1014 29.94 843 24.89 -16.7 1.9 83 -19 -2.3
02:35 1013 29.91 843 24.89 -16.7 1.9 83 -19 -2.3
02:40 1013 29.91 843 24.89 -16.6 2 83 -18.8 -1.9
02:45 1013 29.91 842 24.86 -16.5 2.2 83 -18.8 -1.9
02:50 1013 29.91 842 24.86 -16.7 2 83 -18.9 -1.9
02:55 1013 29.91 842 24.86 -16.5 2.3 83 -18.8 -1.8
03:00 1013 29.91 842 24.86 -16.3 2.7 82 -18.7 -1.6
03:05 1013 29.91 842 24.86 -16.3 2.7 82 -18.6 -1.5
03:10 1013 29.91 842 24.86 -16.2 2.9 83 -18.5 -1.2
03:15 1013 29.91 842 24.86 -16 3.3 83 -18.3 -0.9
03:20 1013 29.91 842 24.86 -15.8 3.6 82 -18.3 -0.9
03:25 1013 29.91 842 24.86 -16 3.2 82 -18.4 -1.2
03:30 1013 29.91 842 24.86 -16 3.2 83 -18.3 -1
03:35 1013 29.91 842 24.86 -15.8 3.5 83 -18.1 -0.6
03:40 1013 29.91 842 24.86 -15.4 4.3 81 -17.9 -0.2
03:45 1013 29.91 842 24.86 -15.4 4.2 82 -17.8 -0.1
03:50 1013 29.91 842 24.86 -15.3 4.5 82 -17.8 -0
03:55 1013 29.91 842 24.86 -15.2 4.6 81 -17.7 0.1
04:00 1013 29.91 842 24.86 -15.2 4.7 81 -17.7 0.1
04:05 1013 29.91 842 24.86 -15.3 4.4 81 -17.9 -0.3
04:10 1013 29.91 842 24.86 -15.7 3.7 81 -18.3 -0.9
04:15 1013 29.91 842 24.86 -16.2 2.8 83 -18.5 -1.3
04:20 1013 29.91 842 24.86 -16.3 2.6 84 -18.5 -1.3
04:25 1013 29.91 842 24.86 -16.2 2.9 85 -18.2 -0.7
04:30 1013 29.91 842 24.86 -16 3.3 84 -18.1 -0.6
04:35 1013 29.91 842 24.86 -15.8 3.5 83 -18.1 -0.5
04:40 1013 29.91 842 24.86 -15.8 3.6 82 -18.1 -0.6
04:45 1013 29.91 842 24.86 -15.7 3.8 82 -18.1 -0.6
04:50 1013 29.91 842 24.86 -15.9 3.4 82 -18.3 -0.9
04:55 1013 29.91 842 24.86 -16 3.2 81 -18.5 -1.4
05:00 1012 29.88 842 24.86 -16.2 2.8 84 -18.4 -1.1
05:05 1012 29.88 842 24.86 -16.3 2.6 84 -18.5 -1.3
05:10 1012 29.88 841 24.83 -16.5 2.4 84 -18.5 -1.4
05:15 1012 29.88 841 24.83 -16.4 2.5 84 -18.4 -1.2
05:20 1012 29.88 841 24.83 -16.4 2.4 84 -18.5 -1.3
05:25 1012 29.88 841 24.83 -16.3 2.6 87 -18.1 -0.5
05:30 1012 29.88 841 24.83 -15.9 3.5 85 -17.8 -0.1
05:35 1012 29.88 841 24.83 -15.6 3.9 84 -17.7 0.1
05:40 1012 29.88 841 24.83 -15.6 4 82 -17.9 -0.3
05:45 1012 29.88 841 24.83 -15.6 3.9 82 -18 -0.4
05:50 1012 29.88 841 24.83 -15.8 3.6 80 -18.5 -1.2
05:55 1012 29.88 841 24.83 -16.5 2.3 82 -18.9 -2.1
06:00 1012 29.88 841 24.83 -17.4 0.8 85 -19.4 -2.8
06:05 1012 29.88 841 24.83 -17.3 0.8 87 -19 -2.1
06:10 1012 29.88 841 24.83 -16.8 1.7 87 -18.5 -1.2
06:15 1012 29.88 841 24.83 -16.3 2.7 90 -17.6 0.3
06:20 1012 29.88 841 24.83 -16.1 3 86 -17.9 -0.3
06:25 1012 29.88 841 24.83 -16.2 2.9 88 -17.8 -0
06:30 1012 29.88 841 24.83 -16 3.3 84 -18.1 -0.6
06:35 1012 29.88 841 24.83 -16.4 2.5 84 -18.5 -1.4
06:40 1012 29.88 841 24.83 -16.8 1.9 85 -18.7 -1.7
06:45 1012 29.88 841 24.83 -16.8 1.7 87 -18.5 -1.2
06:50 1012 29.88 841 24.83 -16.5 2.2 86 -18.4 -1.1
06:55 1012 29.88 841 24.83 -16.6 2.1 85 -18.6 -1.5
07:00 1012 29.88 841 24.83 -16.9 1.6 86 -18.7 -1.7
07:05 1012 29.88 841 24.83 -16.9 1.7 87 -18.6 -1.4
07:10 1011 29.85 841 24.83 -16.7 1.9 88 -18.4 -1
07:15 1011 29.85 841 24.83 -16.3 2.6 86 -18.1 -0.6
07:20 1011 29.85 841 24.83 -16.1 3 86 -17.9 -0.3
07:25 1011 29.85 841 24.83 -16.2 2.8 85 -18.2 -0.7
07:30 1011 29.85 841 24.83 -16.2 2.9 87 -17.9 -0.2
07:35 1011 29.85 841 24.83 -16 3.2 85 -17.9 -0.2
07:40 1011 29.85 840 24.81 -16 3.1 86 -17.9 -0.3
07:45 1011 29.85 840 24.81 -16 3.1 85 -18 -0.4
07:50 1011 29.85 840 24.81 -16 3.2 86 -17.9 -0.1
07:55 1011 29.85 840 24.81 -15.7 3.7 86 -17.6 0.3
08:00 1011 29.85 840 24.81 -15.5 4 84 -17.7 0.2
08:05 1011 29.85 840 24.81 -15.6 3.9 86 -17.5 0.5
08:10 1011 29.85 840 24.81 -15.1 4.9 84 -17.2 1
08:15 1011 29.85 840 24.81 -15 5.1 84 -17.1 1.2
08:20 1011 29.85 840 24.81 -15 5.1 84 -17.1 1.1
08:25 1011 29.85 840 24.81 -15 4.9 84 -17.1 1.2
08:30 1011 29.85 840 24.81 -14.9 5.3 85 -16.9 1.7
08:35 1011 29.85 840 24.81 -14.5 5.9 84 -16.6 2
08:40 1011 29.85 840 24.81 -14.4 6.2 84 -16.5 2.3
08:45 1011 29.85 840 24.81 -14.3 6.3 84 -16.5 2.4
08:50 1011 29.85 840 24.81 -14.3 6.4 85 -16.2 2.8
08:55 1011 29.85 840 24.81 -14 6.8 85 -16.1 3.1
09:00 1011 29.85 840 24.81 -13.7 7.3 83 -16.1 3
09:05 1011 29.85 840 24.81 -13.7 7.3 82 -16.1 2.9
09:10 1011 29.85 840 24.81 -13.7 7.3 81 -16.4 2.5
09:15 1011 29.85 840 24.81 -14 6.9 82 -16.5 2.4
09:20 1011 29.85 840 24.81 -14.1 6.7 81 -16.6 2.1
09:25 1011 29.85 840 24.81 -14.2 6.5 82 -16.6 2.2
09:30 1011 29.85 840 24.81 -14.1 6.5 82 -16.5 2.3
09:35 1010 29.83 840 24.81 -14 6.8 82 -16.4 2.4
09:40 1011 29.85 840 24.81 -14 6.9 83 -16.3 2.7
09:45 1011 29.85 840 24.81 -13.9 7 83 -16.2 2.8
09:50 1011 29.85 840 24.81 -13.7 7.3 83 -16 3.2
09:55 1010 29.83 840 24.81 -13.5 7.6 82 -16 3.3
10:00 1011 29.85 840 24.81 -13.4 7.9 81 -15.9 3.3
10:05 1011 29.85 840 24.81 -13.4 8 81 -15.9 3.3
10:10 1010 29.83 840 24.81 -13.5 7.8 81 -16 3.2
10:15 1010 29.83 840 24.81 -13.5 7.7 81 -16 3.1
10:20 1010 29.83 840 24.81 -13.3 8 81 -15.9 3.4
10:25 1010 29.83 840 24.81 -13.3 8.1 81 -15.9 3.5
10:30 1010 29.83 840 24.81 -13.2 8.3 81 -15.7 3.7
10:35 1010 29.83 840 24.81 -12.7 9.1 80 -15.4 4.2
10:40 1010 29.83 840 24.81 -12.1 10.1 78 -15.2 4.6
10:45 1010 29.83 840 24.81 -11.8 10.8 77 -15.1 4.9
10:50 1010 29.83 840 24.81 -11.5 11.3 76 -14.9 5.2
10:55 1010 29.83 840 24.81 -11.2 11.9 76 -14.6 5.7
11:00 1010 29.83 840 24.81 -10.7 12.7 74 -14.5 5.9
11:05 1011 29.85 840 24.81 -10.4 13.4 74 -14.2 6.4
11:10 1011 29.85 840 24.81 -10.3 13.4 73 -14.3 6.3
11:15 1011 29.85 840 24.81 -10.2 13.6 73 -14.2 6.4
11:20 1011 29.85 840 24.81 -9.9 14.1 73 -13.9 6.9
11:25 1011 29.85 840 24.81 -9.8 14.3 72 -14 6.9
11:30 1011 29.85 840 24.81 -9.5 14.9 71 -13.8 7.2
11:35 1011 29.85 840 24.81 -9.2 15.5 70 -13.7 7.3
11:40 1011 29.85 840 24.81 -9 15.8 70 -13.5 7.6
11:45 1011 29.85 840 24.81 -9 15.8 69 -13.7 7.4
11:50 1011 29.85 840 24.81 -9.3 15.3 73 -13.3 8.1
11:55 1011 29.85 840 24.81 -8.9 16 71 -13.2 8.3
12:00 1011 29.85 840 24.81 -8.6 16.6 70 -13.1 8.5
12:05 1010 29.83 840 24.81 -8.7 16.4 72 -12.9 8.8
12:10 1010 29.83 840 24.81 -8.7 16.4 71 -13 8.7
12:15 1010 29.83 839 24.78 -8.4 16.8 70 -12.9 8.7
12:20 1010 29.83 839 24.78 -8.4 16.9 71 -12.7 9.1
12:25 1010 29.83 839 24.78 -8.7 16.4 71 -13.1 8.5
12:30 1010 29.83 839 24.78 -9 15.7 71 -13.3 8
12:35 1010 29.83 839 24.78 -8.9 15.9 72 -13.1 8.5
12:40 1010 29.83 839 24.78 -8.7 16.3 70 -13.3 8.1
12:45 1010 29.83 839 24.78 -8.6 16.4 70 -13.1 8.4
12:50 1010 29.83 839 24.78 -8.7 16.3 70 -13.3 8
12:55 1009 29.8 839 24.78 -8.7 16.3 71 -13.1 8.4
13:00 1009 29.8 838 24.75 -8.7 16.4 69 -13.4 7.9
13:05 1009 29.8 838 24.75 -8.5 16.8 69 -13.1 8.3
13:10 1009 29.8 838 24.75 -8.2 17.3 68 -13.1 8.4
13:15 1009 29.8 838 24.75 -7.8 17.9 68 -12.8 9
13:20 1009 29.8 838 24.75 -8 17.6 71 -12.4 9.8
13:25 1009 29.8 838 24.75 -7.5 18.5 68 -12.3 9.8
13:30 1009 29.8 838 24.75 -7.1 19.2 66 -12.5 9.6
13:35 1009 29.8 838 24.75 -7 19.3 67 -12.2 10
13:40 1009 29.8 838 24.75 -7.5 18.4 68 -12.5 9.5
13:45 1009 29.8 838 24.75 -7.5 18.5 66 -12.9 8.9
13:50 1009 29.8 838 24.75 -7.5 18.4 64 -13.3 8.1
13:55 1009 29.8 838 24.75 -8.2 17.2 69 -13 8.6
14:00 1008 29.77 838 24.75 -8 17.5 67 -13.1 8.5
14:05 1008 29.77 838 24.75 -7.7 18.1 68 -12.7 9.2
14:10 1008 29.77 838 24.75 -7.5 18.5 63 -13.4 7.9
14:15 1008 29.77 838 24.75 -7.6 18.4 65 -13.1 8.5
14:20 1008 29.77 837 24.72 -7.9 17.8 67 -12.9 8.7
14:25 1008 29.77 837 24.72 -7.7 18.1 62 -13.8 7.2
14:30 1008 29.77 837 24.72 -8.2 17.3 68 -13.1 8.4
14:35 1008 29.77 837 24.72 -8.3 17 70 -12.9 8.8
14:40 1008 29.77 837 24.72 -8.6 16.5 73 -12.6 9.3
14:45 1008 29.77 837 24.72 -8.7 16.4 73 -12.7 9.1
14:50 1008 29.77 837 24.72 -8.4 16.8 69 -13.1 8.4
14:55 1008 29.77 837 24.72 -8.1 17.3 69 -12.8 9
15:00 1008 29.77 837 24.72 -7.9 17.9 67 -13 8.7
15:05 1007 29.74 837 24.72 -7.4 18.6 66 -12.8 9
15:10 1007 29.74 837 24.72 -7.1 19.1 61 -13.4 7.9
15:15 1007 29.74 837 24.72 -6.7 20 64 -12.3 9.8
15:20 1007 29.74 837 24.72 -6.2 20.9 59 -12.9 8.7
15:25 1007 29.74 836 24.69 -5.8 21.6 58 -12.8 9
15:30 1007 29.74 836 24.69 -5.5 22.1 59 -12.4 9.8
15:35 1007 29.74 836 24.69 -5.1 22.8 58 -12.1 10.2
15:40 1007 29.74 836 24.69 -4.9 23.1 60 -11.5 11.3
15:45 1007 29.74 836 24.69 -4.6 23.8 56 -12.1 10.2
15:50 1006 29.71 836 24.69 -4.7 23.5 59 -11.6 11.1
15:55 1006 29.71 836 24.69 -5.3 22.5 60 -11.9 10.5
16:00 1006 29.71 835 24.66 -5.4 22.3 58 -12.4 9.7
16:05 1006 29.71 836 24.69 -5.7 21.7 66 -11.1 12
16:10 1006 29.71 836 24.69 -6.4 20.5 67 -11.6 11.2
16:15 1006 29.71 835 24.66 -6.4 20.4 68 -11.3 11.6
16:20 1006 29.71 835 24.66 -6.3 20.6 69 -11.2 11.9
16:25 1006 29.71 835 24.66 -6.4 20.5 68 -11.3 11.6
16:30 1006 29.71 835 24.66 -6.4 20.5 71 -10.8 12.6
16:35 1006 29.71 835 24.66 -6.4 20.4 70 -11 12.1
16:40 1006 29.71 835 24.66 -6.2 20.8 66 -11.5 11.2
16:45 1006 29.71 835 24.66 -6.2 20.9 64 -12 10.4
16:50 1005 29.68 835 24.66 -6.1 21 60 -12.6 9.4
16:55 1005 29.68 835 24.66 -6.2 20.9 67 -11.4 11.4
17:00 1005 29.68 835 24.66 -6.6 20.2 62 -12.7 9.2
17:05 1005 29.68 835 24.66 -6.6 20.1 61 -12.9 8.8
17:10 1005 29.68 834 24.63 -6.5 20.3 61 -12.9 8.9
17:15 1005 29.68 834 24.63 -6.4 20.5 60 -13 8.6
17:20 1005 29.68 834 24.63 -6.5 20.3 58 -13.4 8
17:25 1005 29.68 834 24.63 -6.3 20.7 60 -12.8 9
17:30 1005 29.68 834 24.63 -6.4 20.5 64 -12.2 10.1
17:35 1005 29.68 834 24.63 -6.5 20.3 64 -12.1 10.1
17:40 1005 29.68 834 24.63 -6.5 20.3 64 -12.2 10
17:45 1005 29.68 834 24.63 -6.5 20.3 64 -12.3 9.9
17:50 1005 29.68 834 24.63 -6.5 20.2 66 -11.9 10.6
17:55 1005 29.68 834 24.63 -6.6 20.1 68 -11.6 11
18:00 1005 29.68 834 24.63 -6.9 19.6 68 -11.8 10.7
18:05 1005 29.68 834 24.63 -6.9 19.5 68 -11.8 10.7
18:10 1005 29.68 834 24.63 -6.9 19.5 70 -11.5 11.4
18:15 1005 29.68 834 24.63 -6.8 19.7 67 -11.9 10.6
18:20 1004 29.65 834 24.63 -6.7 19.9 69 -11.5 11.3
18:25 1004 29.65 834 24.63 -6.9 19.6 71 -11.3 11.6
18:30 1004 29.65 833 24.6 -6.8 19.7 65 -12.4 9.7
18:35 1004 29.65 833 24.6 -6.2 20.9 66 -11.5 11.3
18:40 1004 29.65 833 24.6 -6 21.2 64 -11.7 11
18:45 1004 29.65 833 24.6 -6 21.2 66 -11.3 11.6
18:50 1004 29.65 833 24.6 -6 21.2 66 -11.3 11.6
18:55 1004 29.65 833 24.6 -6.1 21 67 -11.2 11.8
19:00 1004 29.65 833 24.6 -6.3 20.6 69 -11.2 11.8
19:05 1004 29.65 833 24.6 -6.6 20.2 67 -11.7 11
19:10 1004 29.65 833 24.6 -6.5 20.4 70 -11.1 12.1
19:15 1004 29.65 833 24.6 -6.3 20.6 69 -11.1 12.1
19:20 1004 29.65 833 24.6 -6.2 20.9 72 -10.5 13.1
19:25 1004 29.65 833 24.6 -6.2 20.8 74 -10.2 13.6
19:30 1004 29.65 833 24.6 -6.2 20.9 74 -10 13.9
19:35 1004 29.65 833 24.6 -6 21.2 75 -9.7 14.5
19:40 1004 29.65 833 24.6 -6 21.3 75 -9.7 14.5
19:45 1004 29.65 833 24.6 -5.8 21.5 72 -10 14
19:50 1004 29.65 833 24.6 -5.8 21.6 72 -10 14
19:55 1004 29.65 833 24.6 -5.7 21.7 74 -9.7 14.6
20:00 1004 29.65 833 24.6 -5.8 21.6 77 -9.2 15.5
20:05 1004 29.65 833 24.6 -5.9 21.3 80 -8.9 16
20:10 1004 29.65 833 24.6 -6 21.1 82 -8.7 16.4
20:15 1004 29.65 833 24.6 -6 21.1 84 -8.3 17
20:20 1004 29.65 833 24.6 -6 21.2 85 -8.1 17.4
20:25 1004 29.65 833 24.6 -5.9 21.4 86 -7.8 17.9
20:30 1004 29.65 833 24.6 -5.8 21.6 87 -7.6 18.4
20:35 1004 29.65 833 24.6 -5.7 21.8 87 -7.5 18.6
20:40 1004 29.65 833 24.6 -5.7 21.7 89 -7.3 18.9
20:45 1004 29.65 833 24.6 -5.8 21.6 89 -7.3 18.9
20:50 1003 29.62 833 24.6 -5.8 21.5 90 -7.2 19.1
20:50 1003 29.62 833 24.6 -5.8 21.5 90 -7.2 19.1
20:55 1003 29.62 833 24.6 -5.8 21.5 91 -7.1 19.1
21:00 1003 29.62 832 24.57 -5.8 21.5 91 -7 19.3
21:05 1003 29.62 832 24.57 -5.8 21.5 91 -7 19.4
21:10 1003 29.62 832 24.57 -5.9 21.5 92 -7 19.4
21:15 1003 29.62 832 24.57 -5.9 21.4 92 -7 19.4
21:20 1003 29.62 832 24.57 -5.8 21.5 91 -7 19.4
21:25 1003 29.62 832 24.57 -5.8 21.6 91 -7 19.4
21:30 1003 29.62 832 24.57 -5.8 21.6 91 -7 19.4
21:35 1003 29.62 832 24.57 -5.8 21.6 91 -7 19.4
21:40 1003 29.62 832 24.57 -5.8 21.6 91 -7 19.4
21:45 1003 29.62 833 24.6 -5.8 21.6 91 -7 19.4
21:50 1003 29.62 833 24.6 -5.8 21.6 91 -7 19.5
21:55 1003 29.62 833 24.6 -5.8 21.6 92 -7 19.5
22:00 1003 29.62 833 24.6 -5.8 21.6 92 -6.9 19.5
22:05 1003 29.62 833 24.6 -5.8 21.6 92 -6.9 19.5
22:10 1003 29.62 833 24.6 -5.8 21.6 91 -7 19.4
22:15 1003 29.62 832 24.57 -5.8 21.5 92 -7 19.5
22:20 1003 29.62 832 24.57 -5.9 21.4 92 -7 19.4
22:25 1003 29.62 832 24.57 -5.9 21.4 92 -7 19.4
22:30 1003 29.62 832 24.57 -5.9 21.3 92 -7 19.4
22:35 1003 29.62 832 24.57 -6 21.3 92 -7 19.3
22:40 1003 29.62 832 24.57 -6 21.2 92 -7.1 19.3
22:45 1003 29.62 832 24.57 -6 21.2 92 -7.1 19.3
22:50 1003 29.62 832 24.57 -6 21.2 92 -7.1 19.3
22:55 1003 29.62 832 24.57 -6 21.1 92 -7.1 19.3
23:00 1003 29.62 832 24.57 -6 21.1 92 -7.1 19.2
23:05 1003 29.62 832 24.57 -6.1 21 92 -7.2 19
23:10 1003 29.62 832 24.57 -6.1 21 91 -7.4 18.7
23:15 1003 29.62 832 24.57 -6.1 20.9 91 -7.5 18.6
23:20 1003 29.62 832 24.57 -6.2 20.9 90 -7.5 18.4
23:25 1003 29.62 832 24.57 -6.2 20.9 89 -7.6 18.3
23:30 1003 29.62 832 24.57 -6.2 20.9 90 -7.6 18.4
23:35 1003 29.62 832 24.57 -6.2 20.8 90 -7.7 18.2
23:40 1003 29.62 832 24.57 -6.3 20.7 90 -7.6 18.3
23:45 1003 29.62 832 24.57 -6.3 20.7 90 -7.6 18.2
23:50 1003 29.62 832 24.57 -6.4 20.6 91 -7.7 18.2
23:55 1003 29.62 832 24.57 -6.4 20.5 90 -7.7 18.1
24:00 1003 29.62 832 24.57 -6.4 20.4 91 -7.6 18.3